createdAt,value
2018-11-26T00:00:27.783Z,69.30
2018-11-26T00:01:27.762Z,66.90
2018-11-26T00:02:27.735Z,64.00
2018-11-26T00:03:27.710Z,68.90
2018-11-26T00:04:27.684Z,64.40
2018-11-26T00:05:27.666Z,63.50
2018-11-26T00:06:27.638Z,63.20
2018-11-26T00:07:27.620Z,68.00
2018-11-26T00:08:27.585Z,70.90
2018-11-26T00:09:27.560Z,65.20
2018-11-26T00:10:27.535Z,66.00
2018-11-26T00:11:27.512Z,65.70
2018-11-26T00:12:27.487Z,66.40
2018-11-26T00:13:27.465Z,62.00
2018-11-26T00:14:27.437Z,64.00
2018-11-26T00:15:27.414Z,63.00
2018-11-26T00:16:27.387Z,65.10
2018-11-26T00:17:27.375Z,65.10
2018-11-26T00:18:27.344Z,70.10
2018-11-26T00:19:27.315Z,65.20
2018-11-26T00:20:27.304Z,67.20
2018-11-26T00:21:27.267Z,63.40
2018-11-26T00:22:27.241Z,63.90
2018-11-26T00:23:27.219Z,63.90
2018-11-26T00:24:27.190Z,66.30
2018-11-26T00:25:27.167Z,63.10
2018-11-26T00:26:27.151Z,59.60
2018-11-26T00:27:27.119Z,63.10
2018-11-26T00:28:27.094Z,63.40
2018-11-26T00:29:27.084Z,60.50
2018-11-26T00:30:27.049Z,59.70
2018-11-26T00:31:27.019Z,57.60
2018-11-26T00:32:26.997Z,62.10
2018-11-26T00:33:26.982Z,63.80
2018-11-26T00:34:26.995Z,61.80
2018-11-26T00:35:26.923Z,58.00
2018-11-26T00:36:26.895Z,63.20
2018-11-26T00:37:26.871Z,62.00
2018-11-26T00:38:26.850Z,59.20
2018-11-26T00:39:26.820Z,56.30
2018-11-26T00:40:26.793Z,63.40
2018-11-26T00:41:26.772Z,58.70
2018-11-26T00:42:26.754Z,54.90
2018-11-26T00:43:26.734Z,60.70
2018-11-26T00:44:26.699Z,58.60
2018-11-26T00:45:26.680Z,58.20
2018-11-26T00:46:26.652Z,56.90
2018-11-26T00:47:26.625Z,58.90
2018-11-26T00:48:26.602Z,56.90
2018-11-26T00:49:26.577Z,57.30
2018-11-26T00:50:26.563Z,58.80
2018-11-26T00:51:26.525Z,54.70
2018-11-26T00:52:26.501Z,59.00
2018-11-26T00:53:26.472Z,57.10
2018-11-26T00:54:26.451Z,56.40
2018-11-26T00:55:26.424Z,55.10
2018-11-26T00:56:26.398Z,56.60
2018-11-26T00:57:26.377Z,56.80
2018-11-26T00:58:26.362Z,59.10
2018-11-26T00:59:26.324Z,58.50
2018-11-26T01:00:26.304Z,52.60
2018-11-26T01:01:26.279Z,55.50
2018-11-26T01:02:26.251Z,57.70
2018-11-26T01:03:26.226Z,62.30
2018-11-26T01:04:26.204Z,59.00
2018-11-26T01:05:26.187Z,56.70
2018-11-26T01:06:26.154Z,54.80
2018-11-26T01:07:26.133Z,58.50
2018-11-26T01:08:26.101Z,55.70
2018-11-26T01:09:26.078Z,57.20
2018-11-26T01:10:26.056Z,55.50
2018-11-26T01:11:26.029Z,57.40
2018-11-26T01:12:26.004Z,56.40
2018-11-26T01:13:25.981Z,57.80
2018-11-26T01:14:25.957Z,56.30
2018-11-26T01:15:25.937Z,57.70
2018-11-26T01:16:25.907Z,57.30
2018-11-26T01:17:25.881Z,60.50
2018-11-26T01:18:25.857Z,55.60
2018-11-26T01:19:25.832Z,57.70
2018-11-26T01:20:25.806Z,56.90
2018-11-26T01:21:25.781Z,59.50
2018-11-26T01:22:25.758Z,53.80
2018-11-26T01:23:25.735Z,57.60
2018-11-26T01:24:25.709Z,61.40
2018-11-26T01:25:25.684Z,55.60
2018-11-26T01:26:25.662Z,54.60
2018-11-26T01:27:25.640Z,57.40
2018-11-26T01:28:25.617Z,55.50
2018-11-26T01:29:25.592Z,56.90
2018-11-26T01:30:25.560Z,57.50
2018-11-26T01:31:25.533Z,53.10
2018-11-26T01:32:25.512Z,58.20
2018-11-26T01:33:25.492Z,56.10
2018-11-26T01:34:25.468Z,53.50
2018-11-26T01:35:25.438Z,54.50
2018-11-26T01:36:25.416Z,52.40
2018-11-26T01:37:25.386Z,50.10
2018-11-26T01:38:25.362Z,57.30
2018-11-26T01:39:25.340Z,50.60
2018-11-26T01:40:25.313Z,54.60
2018-11-26T01:41:25.288Z,50.80
2018-11-26T01:42:25.274Z,53.80
2018-11-26T01:43:25.246Z,57.60
2018-11-26T01:44:25.212Z,54.20
2018-11-26T01:45:25.190Z,57.20
2018-11-26T01:46:25.163Z,52.10
2018-11-26T01:47:25.140Z,53.80
2018-11-26T01:48:25.119Z,51.90
2018-11-26T01:49:25.133Z,53.00
2018-11-26T01:50:25.065Z,54.60
2018-11-26T01:51:25.042Z,52.50
2018-11-26T01:52:25.018Z,53.80
2018-11-26T01:53:24.991Z,53.30
2018-11-26T01:54:24.978Z,55.00
2018-11-26T01:55:24.941Z,54.00
2018-11-26T01:56:24.918Z,54.70
2018-11-26T01:57:24.900Z,54.90
2018-11-26T01:58:24.875Z,54.90
2018-11-26T01:59:24.853Z,54.00
2018-11-26T02:00:24.821Z,51.90
2018-11-26T02:01:24.797Z,48.40
2018-11-26T02:02:24.769Z,51.90
2018-11-26T02:03:24.747Z,51.20
2018-11-26T02:04:24.723Z,52.50
2018-11-26T02:05:24.698Z,50.70
2018-11-26T02:06:24.669Z,51.70
2018-11-26T02:07:24.653Z,51.40
2018-11-26T02:08:24.622Z,49.00
2018-11-26T02:09:24.597Z,51.20
2018-11-26T02:10:24.575Z,50.80
2018-11-26T02:11:24.600Z,47.30
2018-11-26T02:12:24.523Z,49.00
2018-11-26T02:13:24.497Z,48.80
2018-11-26T02:14:24.471Z,48.60
2018-11-26T02:15:24.445Z,50.20
2018-11-26T02:16:24.423Z,50.70
2018-11-26T02:17:24.400Z,54.90
2018-11-26T02:18:24.373Z,44.50
2018-11-26T02:19:24.348Z,47.50
2018-11-26T02:20:24.322Z,50.40
2018-11-26T02:21:24.299Z,50.20
2018-11-26T02:22:24.275Z,51.60
2018-11-26T02:23:24.249Z,50.40
2018-11-26T02:24:24.222Z,44.40
2018-11-26T02:25:24.201Z,46.90
2018-11-26T02:26:24.174Z,45.80
2018-11-26T02:27:24.151Z,46.80
2018-11-26T02:28:24.133Z,48.50
2018-11-26T02:29:24.101Z,45.80
2018-11-26T02:30:24.078Z,43.40
2018-11-26T02:31:24.054Z,48.30
2018-11-26T02:32:24.026Z,45.10
2018-11-26T02:33:24.005Z,43.50
2018-11-26T02:34:23.976Z,46.30
2018-11-26T02:35:23.951Z,43.80
2018-11-26T02:36:23.929Z,47.10
2018-11-26T02:37:23.902Z,47.30
2018-11-26T02:38:23.880Z,44.60
2018-11-26T02:39:23.860Z,47.30
2018-11-26T02:40:23.872Z,47.20
2018-11-26T02:41:23.802Z,48.30
2018-11-26T02:42:23.778Z,44.80
2018-11-26T02:43:23.754Z,47.50
2018-11-26T02:44:23.745Z,47.00
2018-11-26T02:45:23.749Z,45.30
2018-11-26T02:46:23.686Z,44.40
2018-11-26T02:47:23.663Z,45.80
2018-11-26T02:48:23.632Z,49.90
2018-11-26T02:49:23.610Z,47.40
2018-11-26T02:50:23.582Z,48.50
2018-11-26T02:51:23.555Z,46.40
2018-11-26T02:52:23.530Z,45.10
2018-11-26T02:53:23.509Z,43.30
2018-11-26T02:54:23.484Z,47.80
2018-11-26T02:55:23.461Z,47.10
2018-11-26T02:56:23.433Z,45.10
2018-11-26T02:57:23.405Z,45.50
2018-11-26T02:58:23.392Z,46.20
2018-11-26T02:59:23.358Z,45.00
2018-11-26T03:00:23.332Z,47.20
2018-11-26T03:01:23.309Z,45.30
2018-11-26T03:02:23.285Z,46.80
2018-11-26T03:03:23.260Z,44.30
2018-11-26T03:04:23.237Z,46.60
2018-11-26T03:05:23.211Z,44.40
2018-11-26T03:06:23.186Z,47.80
2018-11-26T03:07:23.159Z,47.40
2018-11-26T03:08:23.133Z,42.40
2018-11-26T03:09:23.111Z,46.90
2018-11-26T03:10:23.087Z,47.80
2018-11-26T03:11:23.063Z,45.90
2018-11-26T03:12:23.042Z,47.30
2018-11-26T03:13:23.012Z,49.50
2018-11-26T03:14:22.986Z,50.10
2018-11-26T03:15:22.966Z,48.00
2018-11-26T03:16:22.939Z,46.70
2018-11-26T03:17:22.916Z,47.80
2018-11-26T03:18:22.888Z,47.00
2018-11-26T03:19:22.865Z,44.40
2018-11-26T03:20:22.858Z,45.50
2018-11-26T03:21:22.813Z,49.50
2018-11-26T03:22:22.789Z,47.80
2018-11-26T03:23:22.766Z,47.80
2018-11-26T03:24:22.739Z,45.30
2018-11-26T03:25:22.716Z,46.30
2018-11-26T03:26:22.692Z,46.90
2018-11-26T03:27:22.664Z,47.60
2018-11-26T03:28:22.646Z,48.10
2018-11-26T03:29:22.621Z,48.30
2018-11-26T03:30:22.596Z,49.90
2018-11-26T03:31:22.568Z,48.70
2018-11-26T03:32:22.549Z,47.80
2018-11-26T03:33:22.519Z,46.20
2018-11-26T03:34:22.496Z,45.70
2018-11-26T03:35:22.474Z,46.00
2018-11-26T03:36:22.443Z,48.40
2018-11-26T03:37:22.421Z,46.00
2018-11-26T03:38:22.403Z,45.60
2018-11-26T03:39:22.371Z,48.80
2018-11-26T03:40:22.348Z,49.50
2018-11-26T03:41:22.324Z,46.80
2018-11-26T03:42:22.296Z,44.90
2018-11-26T03:43:22.272Z,47.50
2018-11-26T03:44:22.275Z,45.50
2018-11-26T03:45:22.222Z,48.00
2018-11-26T03:46:22.203Z,45.10
2018-11-26T03:47:22.179Z,46.10
2018-11-26T03:48:22.147Z,47.40
2018-11-26T03:49:22.123Z,47.50
2018-11-26T03:50:22.098Z,46.70
2018-11-26T03:51:22.076Z,47.90
2018-11-26T03:52:22.049Z,45.00
2018-11-26T03:53:22.024Z,45.70
2018-11-26T03:54:22.005Z,48.20
2018-11-26T03:55:21.976Z,46.30
2018-11-26T03:56:21.951Z,47.40
2018-11-26T03:57:21.938Z,51.20
2018-11-26T03:58:21.903Z,50.80
2018-11-26T03:59:21.879Z,45.60
2018-11-26T04:00:21.860Z,46.10
2018-11-26T04:01:21.829Z,49.70
2018-11-26T04:02:21.804Z,46.30
2018-11-26T04:03:21.780Z,48.60
2018-11-26T04:04:21.755Z,50.60
2018-11-26T04:05:21.732Z,46.60
2018-11-26T04:06:21.703Z,47.20
2018-11-26T04:07:21.680Z,49.00
2018-11-26T04:08:21.656Z,49.30
2018-11-26T04:09:21.634Z,47.60
2018-11-26T04:10:21.609Z,49.50
2018-11-26T04:11:21.585Z,49.70
2018-11-26T04:12:21.556Z,46.80
2018-11-26T04:13:21.532Z,47.30
2018-11-26T04:14:21.507Z,45.50
2018-11-26T04:15:21.486Z,50.20
2018-11-26T04:16:21.457Z,47.50
2018-11-26T04:17:21.435Z,47.90
2018-11-26T04:18:21.411Z,50.10
2018-11-26T04:19:21.385Z,45.60
2018-11-26T04:20:21.363Z,49.90
2018-11-26T04:21:21.336Z,48.10
2018-11-26T04:22:21.311Z,46.90
2018-11-26T04:23:21.291Z,49.40
2018-11-26T04:24:21.262Z,46.00
2018-11-26T04:25:21.238Z,49.40
2018-11-26T04:26:21.214Z,47.90
2018-11-26T04:27:21.190Z,50.80
2018-11-26T04:28:21.163Z,49.20
2018-11-26T04:29:21.142Z,49.60
2018-11-26T04:30:21.119Z,50.60
2018-11-26T04:31:21.091Z,48.40
2018-11-26T04:32:21.067Z,49.60
2018-11-26T04:33:21.047Z,52.20
2018-11-26T04:34:21.016Z,50.60
2018-11-26T04:35:20.995Z,49.50
2018-11-26T04:36:20.966Z,50.90
2018-11-26T04:37:20.942Z,48.50
2018-11-26T04:38:20.925Z,54.10
2018-11-26T04:39:20.897Z,56.20
2018-11-26T04:40:20.871Z,52.30
2018-11-26T04:41:20.846Z,49.80
2018-11-26T04:42:20.820Z,51.90
2018-11-26T04:43:20.797Z,53.90
2018-11-26T04:44:20.774Z,52.90
2018-11-26T04:45:20.747Z,51.70
2018-11-26T04:46:20.721Z,51.70
2018-11-26T04:47:20.697Z,50.90
2018-11-26T04:48:20.673Z,53.00
2018-11-26T04:49:20.649Z,53.50
2018-11-26T04:50:20.625Z,50.50
2018-11-26T04:51:20.601Z,53.90
2018-11-26T04:52:20.579Z,55.80
2018-11-26T04:53:20.556Z,55.20
2018-11-26T04:54:20.527Z,51.20
2018-11-26T04:55:20.502Z,58.20
2018-11-26T04:56:20.478Z,50.80
2018-11-26T04:57:20.454Z,54.60
2018-11-26T04:58:20.430Z,54.20
2018-11-26T04:59:20.404Z,51.80
2018-11-26T05:00:20.378Z,54.30
2018-11-26T05:01:20.353Z,50.40
2018-11-26T05:02:20.332Z,52.00
2018-11-26T05:03:20.307Z,49.70
2018-11-26T05:04:20.283Z,51.10
2018-11-26T05:05:20.259Z,53.10
2018-11-26T05:06:20.234Z,53.00
2018-11-26T05:07:20.209Z,50.80
2018-11-26T05:08:20.187Z,51.00
2018-11-26T05:09:20.159Z,48.90
2018-11-26T05:10:20.137Z,48.90
2018-11-26T05:11:20.111Z,54.20
2018-11-26T05:12:20.085Z,51.20
2018-11-26T05:13:20.062Z,49.40
2018-11-26T05:14:20.037Z,51.30
2018-11-26T05:15:20.017Z,53.30
2018-11-26T05:16:19.989Z,52.90
2018-11-26T05:17:19.963Z,50.00
2018-11-26T05:18:19.942Z,50.90
2018-11-26T05:19:19.922Z,53.00
2018-11-26T05:20:19.893Z,52.90
2018-11-26T05:21:19.864Z,49.20
2018-11-26T05:22:19.842Z,48.50
2018-11-26T05:23:19.817Z,48.90
2018-11-26T05:24:19.792Z,48.60
2018-11-26T05:25:19.768Z,47.20
2018-11-26T05:26:19.742Z,48.30
2018-11-26T05:27:19.716Z,50.90
2018-11-26T05:28:19.694Z,48.40
2018-11-26T05:29:19.673Z,49.60
2018-11-26T05:30:19.644Z,50.10
2018-11-26T05:31:19.621Z,50.20
2018-11-26T05:32:19.595Z,50.60
2018-11-26T05:33:19.572Z,46.50
2018-11-26T05:34:19.551Z,50.20
2018-11-26T05:35:19.522Z,48.50
2018-11-26T05:36:19.498Z,44.20
2018-11-26T05:37:19.481Z,45.30
2018-11-26T05:38:19.449Z,52.00
2018-11-26T05:39:19.424Z,49.10
2018-11-26T05:40:19.399Z,49.00
2018-11-26T05:41:19.375Z,47.00
2018-11-26T05:42:19.352Z,49.70
2018-11-26T05:43:19.331Z,48.70
2018-11-26T05:44:19.301Z,49.90
2018-11-26T05:45:19.278Z,49.30
2018-11-26T05:46:19.259Z,48.20
2018-11-26T05:47:19.229Z,44.40
2018-11-26T05:48:19.209Z,47.00
2018-11-26T05:49:19.189Z,49.20
2018-11-26T05:50:19.157Z,47.70
2018-11-26T05:51:19.130Z,49.70
2018-11-26T05:52:19.104Z,52.20
2018-11-26T05:53:19.082Z,46.00
2018-11-26T05:54:19.064Z,50.40
2018-11-26T05:55:19.035Z,50.30
2018-11-26T05:56:19.014Z,47.90
2018-11-26T05:57:18.986Z,47.30
2018-11-26T05:58:18.959Z,50.80
2018-11-26T05:59:18.934Z,44.80
2018-11-26T06:00:18.910Z,47.00
2018-11-26T06:01:18.886Z,45.90
2018-11-26T06:02:18.861Z,47.30
2018-11-26T06:03:18.837Z,46.30
2018-11-26T06:04:18.811Z,49.40
2018-11-26T06:05:18.787Z,48.60
2018-11-26T06:06:18.770Z,46.40
2018-11-26T06:07:18.740Z,47.90
2018-11-26T06:08:18.717Z,51.20
2018-11-26T06:09:18.696Z,47.90
2018-11-26T06:10:18.666Z,52.70
2018-11-26T06:11:18.641Z,48.20
2018-11-26T06:12:18.614Z,46.90
2018-11-26T06:13:18.592Z,46.90
2018-11-26T06:14:18.566Z,46.90
2018-11-26T06:15:18.540Z,49.20
2018-11-26T06:16:18.518Z,49.90
2018-11-26T06:17:18.501Z,47.50
2018-11-26T06:18:18.468Z,47.10
2018-11-26T06:19:18.444Z,47.60
2018-11-26T06:20:19.678Z,48.70
2018-11-26T06:21:18.399Z,47.90
2018-11-26T06:22:18.370Z,45.70
2018-11-26T06:23:18.390Z,51.40
2018-11-26T06:24:18.322Z,48.70
2018-11-26T06:25:18.353Z,45.90
2018-11-26T06:26:18.271Z,52.20
2018-11-26T06:27:18.251Z,48.40
2018-11-26T06:28:18.226Z,53.20
2018-11-26T06:29:18.199Z,49.80
2018-11-26T06:30:18.176Z,47.00
2018-11-26T06:31:18.154Z,49.00
2018-11-26T06:32:18.124Z,44.50
2018-11-26T06:33:18.104Z,47.80
2018-11-26T06:34:18.076Z,46.60
2018-11-26T06:35:18.051Z,46.60
2018-11-26T06:36:18.025Z,49.80
2018-11-26T06:37:18.019Z,49.00
2018-11-26T06:38:17.977Z,46.90
2018-11-26T06:39:17.952Z,46.00
2018-11-26T06:40:17.929Z,47.90
2018-11-26T06:41:17.904Z,47.20
2018-11-26T06:42:17.879Z,48.30
2018-11-26T06:43:17.853Z,49.70
2018-11-26T06:44:17.828Z,52.40
2018-11-26T06:45:17.804Z,48.80
2018-11-26T06:46:17.785Z,48.10
2018-11-26T06:47:17.756Z,44.70
2018-11-26T06:48:17.736Z,47.60
2018-11-26T06:49:17.708Z,48.20
2018-11-26T06:50:17.682Z,46.20
2018-11-26T06:51:17.666Z,45.30
2018-11-26T06:52:17.638Z,48.90
2018-11-26T06:53:17.611Z,44.90
2018-11-26T06:54:17.628Z,47.30
2018-11-26T06:55:17.561Z,49.70
2018-11-26T06:56:17.536Z,49.80
2018-11-26T06:57:17.513Z,48.90
2018-11-26T06:58:17.487Z,49.60
2018-11-26T06:59:17.498Z,48.40
2018-11-26T07:00:17.440Z,46.70
2018-11-26T07:01:17.413Z,48.00
2018-11-26T07:02:17.391Z,44.70
2018-11-26T07:03:17.366Z,47.60
2018-11-26T07:04:17.337Z,48.20
2018-11-26T07:05:17.314Z,48.70
2018-11-26T07:06:17.293Z,47.20
2018-11-26T07:07:17.268Z,48.30
2018-11-26T07:08:17.245Z,47.90
2018-11-26T07:09:17.216Z,48.80
2018-11-26T07:10:17.192Z,48.10
2018-11-26T07:11:17.170Z,48.10
2018-11-26T07:12:17.143Z,46.40
2018-11-26T07:13:17.127Z,48.00
2018-11-26T07:14:17.094Z,46.80
2018-11-26T07:15:17.070Z,48.10
2018-11-26T07:16:17.044Z,48.90
2018-11-26T07:17:17.020Z,51.00
2018-11-26T07:18:16.997Z,45.90
2018-11-26T07:19:16.972Z,47.60
2018-11-26T07:20:16.949Z,47.10
2018-11-26T07:21:16.920Z,44.50
2018-11-26T07:22:16.899Z,46.80
2018-11-26T07:23:16.872Z,49.80
2018-11-26T07:24:16.848Z,48.70
2018-11-26T07:25:16.833Z,50.60
2018-11-26T07:26:16.809Z,51.20
2018-11-26T07:27:16.780Z,53.40
2018-11-26T07:28:16.750Z,48.00
2018-11-26T07:29:23.845Z,53.80
2018-11-26T07:30:16.715Z,52.60
2018-11-26T07:31:16.676Z,48.50
2018-11-26T07:32:16.651Z,57.60
2018-11-26T07:33:16.630Z,54.90
2018-11-26T07:34:16.608Z,52.60
2018-11-26T07:35:16.579Z,56.40
2018-11-26T07:36:16.554Z,57.80
2018-11-26T07:37:16.533Z,57.50
2018-11-26T07:38:16.506Z,55.30
2018-11-26T07:39:16.485Z,54.20
2018-11-26T07:40:16.456Z,55.40
2018-11-26T07:41:16.431Z,54.60
2018-11-26T07:42:16.405Z,62.80
2018-11-26T07:43:16.383Z,63.80
2018-11-26T07:44:16.399Z,56.10
2018-11-26T07:45:16.339Z,62.50
2018-11-26T07:46:16.312Z,60.50
2018-11-26T07:47:16.284Z,59.90
2018-11-26T07:48:16.263Z,60.00
2018-11-26T07:49:16.240Z,61.20
2018-11-26T07:50:16.213Z,57.00
2018-11-26T07:51:16.186Z,60.20
2018-11-26T07:52:16.165Z,58.60
2018-11-26T07:53:16.134Z,56.30
2018-11-26T07:54:16.117Z,62.90
2018-11-26T07:55:16.086Z,60.00
2018-11-26T07:56:16.065Z,61.80
2018-11-26T07:57:16.077Z,60.30
2018-11-26T07:58:16.019Z,64.30
2018-11-26T07:59:15.995Z,59.90
2018-11-26T08:00:15.964Z,62.70
2018-11-26T08:01:15.948Z,66.30
2018-11-26T08:02:15.922Z,82.20
2018-11-26T08:03:15.897Z,99.20
2018-11-26T08:04:15.874Z,94.90
2018-11-26T08:05:15.842Z,98.00
2018-11-26T08:06:15.816Z,83.50
2018-11-26T08:07:15.792Z,88.50
2018-11-26T08:08:15.770Z,73.70
2018-11-26T08:09:15.745Z,90.10
2018-11-26T08:10:15.722Z,91.50
2018-11-26T08:11:15.695Z,89.60
2018-11-26T08:12:15.678Z,84.20
2018-11-26T08:13:15.644Z,79.40
2018-11-26T08:14:15.620Z,87.50
2018-11-26T08:15:15.601Z,82.90
2018-11-26T08:16:15.575Z,87.90
2018-11-26T08:17:15.554Z,72.80
2018-11-26T08:18:15.524Z,71.30
2018-11-26T08:19:15.496Z,75.70
2018-11-26T08:20:15.471Z,73.60
2018-11-26T08:21:15.452Z,74.60
2018-11-26T08:22:15.425Z,80.80
2018-11-26T08:23:15.400Z,71.00
2018-11-26T08:24:15.375Z,73.70
2018-11-26T08:25:15.353Z,70.50
2018-11-26T08:26:15.342Z,76.10
2018-11-26T08:27:15.302Z,74.80
2018-11-26T08:28:15.276Z,78.30
2018-11-26T08:29:15.251Z,72.70
2018-11-26T08:30:15.231Z,74.90
2018-11-26T08:31:15.202Z,74.40
2018-11-26T08:32:15.186Z,74.70
2018-11-26T08:33:15.156Z,78.30
2018-11-26T08:34:15.140Z,73.40
2018-11-26T08:35:15.104Z,77.00
2018-11-26T08:36:15.087Z,77.50
2018-11-26T08:37:15.056Z,73.50
2018-11-26T08:38:15.041Z,82.60
2018-11-26T08:39:15.008Z,76.80
2018-11-26T08:40:14.979Z,83.00
2018-11-26T08:41:14.960Z,72.80
2018-11-26T08:42:14.932Z,76.30
2018-11-26T08:43:14.909Z,78.90
2018-11-26T08:44:14.881Z,84.30
2018-11-26T08:45:14.858Z,81.20
2018-11-26T08:46:14.833Z,75.50
2018-11-26T08:47:14.811Z,72.90
2018-11-26T08:48:14.801Z,74.20
2018-11-26T08:49:14.763Z,78.70
2018-11-26T08:50:14.737Z,80.90
2018-11-26T08:51:14.710Z,80.10
2018-11-26T08:53:14.663Z,71.10
2018-11-26T08:54:14.638Z,76.00
2018-11-26T08:55:14.619Z,79.20
2018-11-26T08:56:14.589Z,75.00
2018-11-26T08:57:14.568Z,77.50
2018-11-26T08:58:14.546Z,78.00
2018-11-26T08:59:14.515Z,76.50
2018-11-26T09:00:14.489Z,77.90
2018-11-26T09:01:14.467Z,78.10
2018-11-26T09:02:14.442Z,73.40
2018-11-26T09:03:14.416Z,72.90
2018-11-26T09:04:14.390Z,79.40
2018-11-26T09:05:14.367Z,77.40
2018-11-26T09:06:14.341Z,75.50
2018-11-26T09:07:14.319Z,81.30
2018-11-26T09:08:14.295Z,77.30
2018-11-26T09:09:14.276Z,81.30
2018-11-26T09:10:14.246Z,83.60
2018-11-26T09:11:14.221Z,82.40
2018-11-26T09:12:14.194Z,84.20
2018-11-26T09:13:14.171Z,74.60
2018-11-26T09:14:14.148Z,75.10
2018-11-26T09:15:14.122Z,76.60
2018-11-26T09:16:14.097Z,75.00
2018-11-26T09:17:14.074Z,76.00
2018-11-26T09:18:14.049Z,77.30
2018-11-26T09:19:14.026Z,71.90
2018-11-26T09:20:14.000Z,81.80
2018-11-26T09:21:13.976Z,72.40
2018-11-26T09:22:13.963Z,66.70
2018-11-26T09:23:13.936Z,73.80
2018-11-26T09:24:13.905Z,95.60
2018-11-26T09:25:13.879Z,74.80
2018-11-26T09:26:13.866Z,75.80
2018-11-26T09:27:13.831Z,71.60
2018-11-26T09:28:13.804Z,69.10
2018-11-26T09:29:13.780Z,68.70
2018-11-26T09:30:13.757Z,72.60
2018-11-26T09:31:13.732Z,80.90
2018-11-26T09:32:13.706Z,78.00
2018-11-26T09:33:13.683Z,63.90
2018-11-26T09:34:13.657Z,67.40
2018-11-26T09:35:13.649Z,68.70
2018-11-26T09:36:13.611Z,66.20
2018-11-26T09:37:13.583Z,76.40
2018-11-26T09:38:13.565Z,74.80
2018-11-26T09:39:13.542Z,72.20
2018-11-26T09:40:13.523Z,65.30
2018-11-26T09:41:13.487Z,71.80
2018-11-26T09:42:13.462Z,76.00
2018-11-26T09:43:13.441Z,75.70
2018-11-26T09:44:13.417Z,66.70
2018-11-26T09:45:13.395Z,70.30
2018-11-26T09:46:13.373Z,71.40
2018-11-26T09:47:13.342Z,65.50
2018-11-26T09:48:13.316Z,63.90
2018-11-26T09:49:13.291Z,59.20
2018-11-26T09:50:13.267Z,61.10
2018-11-26T09:51:14.310Z,61.40
2018-11-26T09:52:13.224Z,64.00
2018-11-26T09:53:13.197Z,78.90
2018-11-26T09:54:13.171Z,80.50
2018-11-26T09:55:13.147Z,77.50
2018-11-26T09:56:13.120Z,73.10
2018-11-26T09:57:13.098Z,74.80
2018-11-26T09:58:13.077Z,71.80
2018-11-26T09:59:13.050Z,69.30
2018-11-26T10:00:13.021Z,67.30
2018-11-26T10:01:13.010Z,73.00
2018-11-26T10:02:12.975Z,72.40
2018-11-26T10:03:12.950Z,72.20
2018-11-26T10:04:12.926Z,70.40
2018-11-26T10:05:12.902Z,82.30
2018-11-26T10:06:12.885Z,74.00
2018-11-26T10:07:12.853Z,68.40
2018-11-26T10:08:12.833Z,69.40
2018-11-26T10:09:12.815Z,68.30
2018-11-26T10:10:12.787Z,67.30
2018-11-26T10:11:12.755Z,70.50
2018-11-26T10:12:12.732Z,69.30
2018-11-26T10:13:12.704Z,65.30
2018-11-26T10:14:12.682Z,62.90
2018-11-26T10:15:12.658Z,80.80
2018-11-26T10:16:12.635Z,77.40
2018-11-26T10:17:12.622Z,79.40
2018-11-26T10:18:12.582Z,67.40
2018-11-26T10:19:12.557Z,67.40
2018-11-26T10:20:12.534Z,65.70
2018-11-26T10:21:12.516Z,66.80
2018-11-26T10:22:12.484Z,69.20
2018-11-26T10:23:12.467Z,64.90
2018-11-26T10:24:12.437Z,66.20
2018-11-26T10:25:12.417Z,62.40
2018-11-26T10:26:12.386Z,63.10
2018-11-26T10:27:12.371Z,59.60
2018-11-26T10:28:12.338Z,62.20
2018-11-26T10:29:12.315Z,63.70
2018-11-26T10:30:12.290Z,57.10
2018-11-26T10:31:12.278Z,59.50
2018-11-26T10:32:12.243Z,61.20
2018-11-26T10:33:14.804Z,56.10
2018-11-26T10:34:12.197Z,57.00
2018-11-26T10:35:12.167Z,54.30
2018-11-26T10:36:12.150Z,55.30
2018-11-26T10:37:12.118Z,56.80
2018-11-26T10:38:12.092Z,54.90
2018-11-26T10:39:12.065Z,50.30
2018-11-26T10:40:12.045Z,52.10
2018-11-26T10:41:12.027Z,53.80
2018-11-26T10:42:12.000Z,51.60
2018-11-26T10:43:11.970Z,51.90
2018-11-26T10:44:11.946Z,48.40
2018-11-26T10:45:11.935Z,48.30
2018-11-26T10:46:11.897Z,50.60
2018-11-26T10:47:11.880Z,47.00
2018-11-26T10:48:11.846Z,48.80
2018-11-26T10:49:11.829Z,52.50
2018-11-26T10:50:11.803Z,49.30
2018-11-26T10:51:11.773Z,47.30
2018-11-26T10:52:11.747Z,52.00
2018-11-26T10:53:11.733Z,46.90
2018-11-26T10:54:11.710Z,50.70
2018-11-26T10:55:11.696Z,48.50
2018-11-26T10:56:11.657Z,50.10
2018-11-26T10:57:11.628Z,47.90
2018-11-26T10:58:11.603Z,47.10
2018-11-26T10:59:11.588Z,47.60
2018-11-26T11:00:11.558Z,48.30
2018-11-26T11:01:11.527Z,47.70
2018-11-26T11:02:11.504Z,47.80
2018-11-26T11:03:11.483Z,48.30
2018-11-26T11:04:11.456Z,49.20
2018-11-26T11:05:11.430Z,46.40
2018-11-26T11:06:11.412Z,47.70
2018-11-26T11:07:11.387Z,48.50
2018-11-26T11:08:11.358Z,45.80
2018-11-26T11:09:11.336Z,52.90
2018-11-26T11:10:11.312Z,48.80
2018-11-26T11:11:11.283Z,51.60
2018-11-26T11:12:11.261Z,65.20
2018-11-26T11:13:11.234Z,73.80
2018-11-26T11:14:11.215Z,59.60
2018-11-26T11:15:11.185Z,83.60
2018-11-26T11:16:11.160Z,78.80
2018-11-26T11:17:11.152Z,68.90
2018-11-26T11:18:11.112Z,54.50
2018-11-26T11:19:11.094Z,51.20
2018-11-26T11:20:11.061Z,54.40
2018-11-26T11:21:11.038Z,54.70
2018-11-26T11:22:11.015Z,57.80
2018-11-26T11:23:10.999Z,53.10
2018-11-26T11:24:10.971Z,55.90
2018-11-26T11:25:10.945Z,55.70
2018-11-26T11:26:10.916Z,55.30
2018-11-26T11:27:10.901Z,56.70
2018-11-26T11:28:10.867Z,58.20
2018-11-26T11:29:10.841Z,56.60
2018-11-26T11:30:10.817Z,58.30
2018-11-26T11:31:10.793Z,48.90
2018-11-26T11:32:10.766Z,51.00
2018-11-26T11:33:50.397Z,49.90
2018-11-26T11:34:50.371Z,51.10
2018-11-26T11:35:50.352Z,49.90
2018-11-26T11:36:50.324Z,47.80
2018-11-26T11:37:50.303Z,45.60
2018-11-26T11:38:50.272Z,47.30
2018-11-26T11:39:50.255Z,44.50
2018-11-26T11:40:50.232Z,50.20
2018-11-26T11:41:50.204Z,50.00
2018-11-26T11:42:50.176Z,49.60
2018-11-26T11:43:50.157Z,48.10
2018-11-26T11:44:50.128Z,49.90
2018-11-26T11:45:50.101Z,45.40
2018-11-26T11:46:50.079Z,52.90
2018-11-26T11:47:50.066Z,48.90
2018-11-26T11:48:50.030Z,51.00
2018-11-26T11:49:50.005Z,51.70
2018-11-26T11:50:49.980Z,52.00
2018-11-26T11:51:49.956Z,53.40
2018-11-26T11:52:49.936Z,50.90
2018-11-26T11:53:49.905Z,49.80
2018-11-26T11:54:49.882Z,50.00
2018-11-26T11:55:49.859Z,48.80
2018-11-26T11:56:49.834Z,49.50
2018-11-26T11:57:49.806Z,49.00
2018-11-26T11:58:49.784Z,49.00
2018-11-26T11:59:49.762Z,50.10
2018-11-26T12:00:49.740Z,50.90
2018-11-26T12:01:49.710Z,52.60
2018-11-26T12:02:49.684Z,63.80
2018-11-26T12:03:49.661Z,74.30
2018-11-26T12:04:49.640Z,64.40
2018-11-26T12:05:49.619Z,84.90
2018-11-26T12:06:49.587Z,54.90
2018-11-26T12:07:49.564Z,49.60
2018-11-26T12:08:49.541Z,51.50
2018-11-26T12:09:49.514Z,48.80
2018-11-26T12:10:49.502Z,52.60
2018-11-26T12:11:49.462Z,50.70
2018-11-26T12:12:49.441Z,50.20
2018-11-26T12:13:49.413Z,47.80
2018-11-26T12:14:49.390Z,50.60
2018-11-26T12:15:49.365Z,58.00
2018-11-26T12:16:49.346Z,53.10
2018-11-26T12:17:49.315Z,46.90
2018-11-26T12:18:49.292Z,48.70
2018-11-26T12:19:49.267Z,48.30
2018-11-26T12:20:49.243Z,47.90
2018-11-26T12:21:49.219Z,48.10
2018-11-26T12:22:49.192Z,50.70
2018-11-26T12:23:49.170Z,50.80
2018-11-26T12:24:49.142Z,50.10
2018-11-26T12:25:49.130Z,48.00
2018-11-26T12:26:49.094Z,47.70
2018-11-26T12:27:49.070Z,50.60
2018-11-26T12:28:49.045Z,51.30
2018-11-26T12:29:49.020Z,50.50
2018-11-26T12:30:49.003Z,49.10
2018-11-26T12:31:48.977Z,49.90
2018-11-26T12:32:48.948Z,49.90
2018-11-26T12:33:48.922Z,50.90
2018-11-26T12:34:48.895Z,48.60
2018-11-26T12:35:48.874Z,47.10
2018-11-26T12:36:48.852Z,51.70
2018-11-26T12:37:48.822Z,52.90
2018-11-26T12:38:48.798Z,50.10
2018-11-26T12:39:48.773Z,48.50
2018-11-26T12:40:48.753Z,47.80
2018-11-26T12:41:48.732Z,47.60
2018-11-26T12:42:48.697Z,48.30
2018-11-26T12:43:48.680Z,49.80
2018-11-26T12:44:48.654Z,46.50
2018-11-26T12:45:48.623Z,51.00
2018-11-26T12:46:48.606Z,46.50
2018-11-26T12:47:48.577Z,45.40
2018-11-26T12:48:48.551Z,49.30
2018-11-26T12:49:48.539Z,50.00
2018-11-26T12:50:48.504Z,49.30
2018-11-26T12:51:48.479Z,48.10
2018-11-26T12:52:48.450Z,47.20
2018-11-26T12:53:48.427Z,49.20